createdAt,value
2022-08-07T00:02:40.471Z,40.59
2022-08-07T00:05:05.965Z,40.56
2022-08-07T00:07:40.497Z,40.70
2022-08-07T00:10:25.882Z,40.83
2022-08-07T00:12:57.852Z,40.89
2022-08-07T00:15:38.633Z,41.12
2022-08-07T00:18:19.208Z,41.08
2022-08-07T00:20:50.005Z,41.31
2022-08-07T00:23:21.075Z,41.27
2022-08-07T00:25:52.093Z,41.54
2022-08-07T00:28:31.791Z,41.63
2022-08-07T00:31:06.187Z,41.51
2022-08-07T00:33:36.295Z,41.76
2022-08-07T00:36:06.810Z,41.90
2022-08-07T00:38:36.558Z,41.70
2022-08-07T00:41:09.913Z,42.05
2022-08-07T00:43:58.882Z,42.03
2022-08-07T00:46:33.144Z,42.03
2022-08-07T00:49:03.606Z,42.08
2022-08-07T00:51:58.150Z,42.38
2022-08-07T00:54:22.729Z,42.31
2022-08-07T00:56:52.003Z,42.37
2022-08-07T00:59:35.068Z,42.30
2022-08-07T01:02:14.088Z,42.52
2022-08-07T01:04:58.862Z,42.46
2022-08-07T01:07:29.631Z,42.68
2022-08-07T01:10:04.433Z,42.64
2022-08-07T01:12:37.168Z,42.58
2022-08-07T01:15:11.920Z,42.45
2022-08-07T01:17:46.627Z,42.73
2022-08-07T01:20:17.439Z,42.84
2022-08-07T01:23:00.478Z,42.72
2022-08-07T01:25:40.579Z,42.97
2022-08-07T01:28:24.291Z,42.94
2022-08-07T01:30:55.953Z,43.00
2022-08-07T01:33:30.048Z,42.98
2022-08-07T01:36:15.079Z,42.95
2022-08-07T01:38:46.072Z,42.79
2022-08-07T01:41:25.922Z,42.97
2022-08-07T01:43:55.895Z,43.03
2022-08-07T01:46:25.535Z,42.93
2022-08-07T01:48:54.415Z,42.94
2022-08-07T01:52:04.109Z,43.20
2022-08-07T01:54:33.093Z,43.04
2022-08-07T01:57:08.483Z,43.15
2022-08-07T01:59:45.230Z,43.19
2022-08-07T02:02:32.585Z,43.37
2022-08-07T02:05:15.773Z,43.39
2022-08-07T02:08:07.973Z,43.41
2022-08-07T02:10:42.242Z,43.49
2022-08-07T02:13:12.927Z,43.42
2022-08-07T02:15:43.364Z,43.48
2022-08-07T02:18:13.935Z,43.24
2022-08-07T02:20:48.682Z,43.56
2022-08-07T02:23:23.999Z,43.55
2022-08-07T02:26:30.589Z,43.67
2022-08-07T02:28:45.487Z,43.68
2022-08-07T02:31:28.670Z,43.44
2022-08-07T02:34:03.493Z,43.45
2022-08-07T02:36:33.960Z,43.68
2022-08-07T02:39:16.043Z,43.74
2022-08-07T02:41:54.492Z,43.87
2022-08-07T02:44:26.793Z,43.86
2022-08-07T02:46:58.657Z,44.00
2022-08-07T02:49:57.466Z,44.08
2022-08-07T02:52:32.263Z,44.31
2022-08-07T02:55:27.784Z,44.28
2022-08-07T02:58:06.576Z,44.34
2022-08-07T03:00:40.639Z,44.46
2022-08-07T03:03:21.219Z,44.80
2022-08-07T03:05:54.619Z,44.78
2022-08-07T03:08:26.946Z,44.97
2022-08-07T03:10:59.603Z,45.11
2022-08-07T03:13:28.740Z,45.15
2022-08-07T03:16:08.262Z,45.35
2022-08-07T03:18:37.605Z,45.17
2022-08-07T03:21:08.837Z,45.18
2022-08-07T03:24:19.661Z,45.20
2022-08-07T03:26:33.117Z,45.46
2022-08-07T03:29:05.697Z,45.24
2022-08-07T03:31:46.137Z,45.41
2022-08-07T03:34:18.660Z,45.48
2022-08-07T03:36:54.138Z,45.49
2022-08-07T03:39:46.456Z,45.43
2022-08-07T03:42:14.159Z,45.53
2022-08-07T03:44:53.067Z,45.59
2022-08-07T03:47:23.264Z,45.79
2022-08-07T03:49:53.647Z,45.69
2022-08-07T03:52:26.571Z,45.41
2022-08-07T03:55:06.241Z,45.64
2022-08-07T03:58:34.913Z,45.73
2022-08-07T04:00:30.190Z,45.64
2022-08-07T04:03:03.769Z,45.58
2022-08-07T04:05:41.137Z,45.71
2022-08-07T04:08:16.159Z,45.49
2022-08-07T04:10:54.074Z,45.71
2022-08-07T04:14:09.359Z,45.93
2022-08-07T04:16:31.254Z,45.63
2022-08-07T04:19:04.208Z,46.03
2022-08-07T04:21:59.500Z,45.94
2022-08-07T04:24:39.121Z,45.70
2022-08-07T04:27:15.093Z,46.11
2022-08-07T04:30:02.313Z,45.86
2022-08-07T04:32:34.217Z,45.90
2022-08-07T04:35:07.187Z,45.67
2022-08-07T04:38:02.778Z,45.80
2022-08-07T04:40:31.387Z,45.74
2022-08-07T04:43:03.615Z,45.84
2022-08-07T04:45:58.118Z,46.06
2022-08-07T04:48:44.861Z,45.75
2022-08-07T04:51:27.078Z,46.14
2022-08-07T04:54:06.161Z,45.91
2022-08-07T04:58:11.442Z,45.90
2022-08-07T05:00:09.734Z,45.66
2022-08-07T05:02:39.369Z,45.89
2022-08-07T05:05:52.561Z,45.89
2022-08-07T05:08:59.519Z,45.75
2022-08-07T05:11:19.211Z,45.83
2022-08-07T05:14:55.794Z,45.85
2022-08-07T05:16:47.036Z,45.72
2022-08-07T05:19:32.625Z,45.60
2022-08-07T05:22:26.779Z,45.46
2022-08-07T05:24:59.685Z,45.57
2022-08-07T05:28:16.140Z,45.51
2022-08-07T05:30:29.993Z,45.22
2022-08-07T05:33:03.422Z,45.20
2022-08-07T05:35:41.897Z,45.24
2022-08-07T05:38:12.051Z,45.10
2022-08-07T05:40:51.416Z,45.05
2022-08-07T05:43:43.363Z,45.12
2022-08-07T05:46:12.321Z,44.90
2022-08-07T05:48:58.421Z,44.73
2022-08-07T05:51:31.686Z,44.72
2022-08-07T05:54:14.068Z,44.45
2022-08-07T05:56:54.300Z,44.51
2022-08-07T05:59:25.222Z,44.28
2022-08-07T06:01:58.355Z,44.09
2022-08-07T06:04:30.433Z,44.09
2022-08-07T06:07:04.410Z,44.10
2022-08-07T06:10:04.370Z,43.81
2022-08-07T06:12:27.959Z,43.79
2022-08-07T06:15:05.732Z,43.53
2022-08-07T06:17:37.580Z,43.53
2022-08-07T06:20:12.344Z,43.31
2022-08-07T06:22:50.777Z,42.99
2022-08-07T06:25:34.897Z,42.87
2022-08-07T06:28:05.913Z,42.65
2022-08-07T06:30:41.357Z,42.44
2022-08-07T06:33:16.600Z,42.29
2022-08-07T06:36:06.207Z,42.03
2022-08-07T06:38:35.338Z,42.01
2022-08-07T06:41:12.901Z,41.94
2022-08-07T06:43:46.578Z,41.73
2022-08-07T06:46:35.265Z,41.52
2022-08-07T06:49:05.494Z,41.30
2022-08-07T06:51:49.572Z,41.31
2022-08-07T06:55:30.063Z,41.15
2022-08-07T06:57:12.728Z,41.09
2022-08-07T07:00:14.716Z,40.74
2022-08-07T07:02:54.050Z,40.67
2022-08-07T07:06:02.681Z,40.51
2022-08-07T07:08:18.166Z,40.41
2022-08-07T07:10:56.438Z,39.91
2022-08-07T07:13:55.706Z,39.83
2022-08-07T07:16:27.454Z,39.65
2022-08-07T07:19:41.015Z,39.41
2022-08-07T07:22:05.101Z,38.85
2022-08-07T07:24:56.573Z,38.45
2022-08-07T07:27:35.779Z,38.39
2022-08-07T07:30:32.610Z,38.35
2022-08-07T07:33:11.499Z,37.95
2022-08-07T07:36:04.483Z,37.53
2022-08-07T07:38:34.942Z,37.01
2022-08-07T07:41:09.199Z,36.90
2022-08-07T07:44:14.040Z,36.72
2022-08-07T07:46:37.730Z,36.38
2022-08-07T07:50:34.581Z,36.35
2022-08-07T07:52:16.146Z,35.97
2022-08-07T07:54:51.165Z,35.57
2022-08-07T07:57:43.634Z,35.51
2022-08-07T08:00:21.205Z,34.89
2022-08-07T08:03:05.505Z,34.67
2022-08-07T08:05:42.751Z,34.71
2022-08-07T08:08:34.549Z,34.11
2022-08-07T08:11:16.439Z,33.85
2022-08-07T08:13:59.600Z,33.71
2022-08-07T08:16:35.500Z,33.36
2022-08-07T08:19:09.664Z,33.22
2022-08-07T08:22:08.142Z,32.54
2022-08-07T08:25:18.155Z,32.62
2022-08-07T08:27:57.128Z,31.79
2022-08-07T08:30:27.671Z,31.93
2022-08-07T08:33:01.778Z,31.56
2022-08-07T08:35:39.560Z,31.44
2022-08-07T08:38:18.136Z,31.36
2022-08-07T08:40:56.971Z,31.14
2022-08-07T08:43:42.122Z,30.66
2022-08-07T08:46:26.687Z,30.67
2022-08-07T08:49:05.110Z,30.19
2022-08-07T08:51:49.515Z,29.99
2022-08-07T08:54:38.522Z,29.95
2022-08-07T08:57:13.548Z,29.77
2022-08-07T08:59:53.770Z,29.79
2022-08-07T09:02:37.796Z,29.30
2022-08-07T09:05:32.040Z,29.29
2022-08-07T09:08:28.109Z,29.22
2022-08-07T09:11:34.960Z,28.76
2022-08-07T09:14:13.231Z,28.93
2022-08-07T09:17:02.254Z,28.81
2022-08-07T09:19:53.456Z,28.50
2022-08-07T09:24:32.441Z,28.36
2022-08-07T09:25:53.401Z,28.41
2022-08-07T09:30:00.815Z,28.29
2022-08-07T09:31:38.276Z,28.29
2022-08-07T09:34:15.936Z,27.70
2022-08-07T09:36:55.571Z,27.48
2022-08-07T09:39:53.800Z,27.67
2022-08-07T09:42:47.448Z,27.34
2022-08-07T09:47:52.478Z,27.33
2022-08-07T09:48:30.923Z,27.39
2022-08-07T09:52:16.212Z,27.45
2022-08-07T09:54:40.084Z,27.31
2022-08-07T09:57:46.463Z,27.09
2022-08-07T10:00:19.592Z,27.10
2022-08-07T10:04:03.862Z,27.26
2022-08-07T10:06:54.056Z,27.58
2022-08-07T10:10:00.808Z,27.43
2022-08-07T10:12:53.171Z,27.79
2022-08-07T10:16:02.295Z,27.50
2022-08-07T10:18:59.223Z,27.52
2022-08-07T10:22:12.408Z,27.52
2022-08-07T10:24:59.504Z,27.54
2022-08-07T10:27:46.091Z,27.36
2022-08-07T10:30:19.819Z,27.41
2022-08-07T10:33:15.026Z,27.47
2022-08-07T10:36:11.049Z,27.48
2022-08-07T10:38:51.145Z,27.10
2022-08-07T10:41:52.119Z,27.43
2022-08-07T10:44:33.882Z,27.13
2022-08-07T10:47:31.160Z,27.52
2022-08-07T10:50:25.891Z,27.53
2022-08-07T10:53:05.294Z,27.46
2022-08-07T10:55:45.200Z,27.63
2022-08-07T10:58:59.382Z,27.55
2022-08-07T11:01:52.159Z,27.39
2022-08-07T11:04:50.675Z,27.53
2022-08-07T11:08:01.369Z,27.52
2022-08-07T11:10:21.424Z,27.83
2022-08-07T11:13:02.910Z,27.73
2022-08-07T11:15:35.884Z,27.86
2022-08-07T11:18:25.452Z,27.89
2022-08-07T11:21:06.228Z,27.67
2022-08-07T11:23:45.889Z,27.87
2022-08-07T11:26:26.510Z,27.94
2022-08-07T11:29:05.719Z,28.00
2022-08-07T11:31:49.584Z,28.09
2022-08-07T11:34:29.251Z,28.18
2022-08-07T11:37:11.745Z,28.28
2022-08-07T11:40:07.492Z,28.30
2022-08-07T11:42:54.324Z,28.37
2022-08-07T11:45:35.903Z,28.28
2022-08-07T11:48:29.669Z,28.20
2022-08-07T11:51:41.671Z,28.51
2022-08-07T11:54:22.115Z,28.45
2022-08-07T11:57:12.644Z,28.59
2022-08-07T12:00:11.640Z,28.59
2022-08-07T12:03:44.667Z,28.63
2022-08-07T12:06:38.918Z,28.56
2022-08-07T12:09:16.825Z,28.42
2022-08-07T12:12:09.161Z,28.49
2022-08-07T12:15:00.147Z,28.63
2022-08-07T12:17:58.583Z,28.53
2022-08-07T12:20:35.078Z,28.52
2022-08-07T12:24:05.518Z,28.60
2022-08-07T12:26:46.369Z,28.59
2022-08-07T12:29:38.071Z,28.53
2022-08-07T12:32:16.041Z,28.50
2022-08-07T12:34:56.194Z,28.34
2022-08-07T12:37:28.409Z,28.36
2022-08-07T12:40:46.865Z,28.43
2022-08-07T12:44:04.465Z,28.24
2022-08-07T12:46:15.802Z,28.26
2022-08-07T12:49:09.754Z,28.25
2022-08-07T12:52:14.102Z,28.34
2022-08-07T12:55:02.857Z,28.24
2022-08-07T12:57:59.502Z,28.35
2022-08-07T13:00:34.562Z,28.44
2022-08-07T13:04:00.559Z,28.52
2022-08-07T13:06:54.264Z,28.61
2022-08-07T13:10:28.335Z,28.68
2022-08-07T13:12:52.475Z,28.59
2022-08-07T13:15:34.147Z,28.44
2022-08-07T13:18:26.057Z,28.56
2022-08-07T13:21:02.732Z,28.56
2022-08-07T13:24:01.502Z,28.59
2022-08-07T13:26:35.873Z,28.55
2022-08-07T13:29:12.965Z,28.37
2022-08-07T13:31:57.716Z,28.48
2022-08-07T13:34:36.956Z,28.51
2022-08-07T13:37:20.089Z,28.45
2022-08-07T13:40:35.611Z,28.41
2022-08-07T13:43:06.473Z,28.02
2022-08-07T13:46:12.107Z,28.09
2022-08-07T13:48:38.399Z,28.30
2022-08-07T13:51:27.292Z,28.33
2022-08-07T13:54:03.519Z,28.33
2022-08-07T13:56:41.404Z,27.85
2022-08-07T13:59:25.457Z,27.90
2022-08-07T14:02:07.141Z,27.97
2022-08-07T14:04:50.091Z,27.85
2022-08-07T14:07:23.574Z,27.88
2022-08-07T14:10:01.912Z,27.83
2022-08-07T14:12:41.645Z,27.68
2022-08-07T14:15:22.434Z,27.60
2022-08-07T14:18:28.000Z,27.64
2022-08-07T14:20:54.588Z,27.44
2022-08-07T14:23:31.527Z,27.45
2022-08-07T14:26:29.798Z,27.57
2022-08-07T14:29:08.798Z,27.21
2022-08-07T14:31:56.499Z,27.20
2022-08-07T14:34:30.483Z,27.19
2022-08-07T14:37:03.139Z,27.23
2022-08-07T14:40:17.212Z,27.10
2022-08-07T14:42:31.397Z,26.82
2022-08-07T14:45:22.340Z,26.96
2022-08-07T14:47:58.629Z,26.99
2022-08-07T14:50:37.582Z,26.97
2022-08-07T14:53:09.779Z,26.62
2022-08-07T14:55:55.842Z,26.73
2022-08-07T14:58:31.552Z,26.99
2022-08-07T15:01:21.347Z,26.92
2022-08-07T15:03:53.492Z,27.03
2022-08-07T15:06:27.628Z,26.78
2022-08-07T15:10:00.765Z,26.74
2022-08-07T15:12:01.366Z,26.83
2022-08-07T15:14:32.497Z,26.78
2022-08-07T15:17:04.384Z,26.85
2022-08-07T15:22:33.300Z,26.72
2022-08-07T15:25:18.117Z,26.66
2022-08-07T15:31:05.433Z,26.38
2022-08-07T15:33:42.764Z,26.49
2022-08-07T15:36:14.018Z,26.38
2022-08-07T15:39:04.570Z,26.47
2022-08-07T15:42:43.541Z,26.45
2022-08-07T15:44:51.881Z,26.32
2022-08-07T15:48:00.129Z,26.33
2022-08-07T15:51:02.055Z,26.31
2022-08-07T15:53:12.087Z,26.23
2022-08-07T15:55:58.773Z,26.32
2022-08-07T15:58:38.594Z,26.35
2022-08-07T16:01:14.355Z,26.33
2022-08-07T16:03:55.670Z,26.24
2022-08-07T16:06:33.795Z,26.25
2022-08-07T16:09:13.340Z,26.14
2022-08-07T16:12:12.243Z,26.20
2022-08-07T16:14:59.126Z,26.14
2022-08-07T16:18:02.552Z,26.34
2022-08-07T16:20:41.979Z,26.27
2022-08-07T16:23:25.093Z,26.27
2022-08-07T16:26:30.634Z,26.23
2022-08-07T16:30:05.456Z,26.28
2022-08-07T16:32:06.536Z,26.12
2022-08-07T16:35:06.144Z,26.18
2022-08-07T16:38:15.071Z,26.26
2022-08-07T16:41:15.942Z,26.26
2022-08-07T16:44:47.212Z,26.38
2022-08-07T16:47:51.216Z,26.46
2022-08-07T16:51:21.620Z,26.43
2022-08-07T16:54:06.756Z,26.52
2022-08-07T16:56:56.992Z,26.46
2022-08-07T16:59:46.713Z,26.44
2022-08-07T17:02:52.919Z,26.47
2022-08-07T17:06:18.815Z,26.59
2022-08-07T17:09:09.247Z,26.44
2022-08-07T17:12:04.679Z,26.66
2022-08-07T17:14:43.668Z,26.49
2022-08-07T17:17:28.091Z,26.57
2022-08-07T17:20:22.799Z,26.46
2022-08-07T17:23:11.609Z,26.56
2022-08-07T17:26:03.737Z,26.82
2022-08-07T17:28:38.147Z,26.61
2022-08-07T17:31:16.508Z,26.70
2022-08-07T17:34:15.134Z,26.52
2022-08-07T17:36:57.883Z,26.71
2022-08-07T17:39:58.778Z,26.72
2022-08-07T17:42:58.623Z,26.88
2022-08-07T17:45:34.881Z,26.91
2022-08-07T17:48:12.637Z,26.74
2022-08-07T17:50:54.060Z,26.98
2022-08-07T17:54:02.089Z,27.03
2022-08-07T17:56:29.483Z,26.97
2022-08-07T17:59:09.694Z,27.15
2022-08-07T18:01:57.975Z,27.15
2022-08-07T18:04:47.944Z,27.31
2022-08-07T18:07:36.737Z,27.25
2022-08-07T18:10:32.099Z,27.38
2022-08-07T18:13:17.563Z,27.22
2022-08-07T18:16:06.207Z,27.53
2022-08-07T18:21:00.696Z,27.45
2022-08-07T18:21:53.546Z,27.53
2022-08-07T18:24:33.626Z,27.87
2022-08-07T18:27:38.764Z,27.77
2022-08-07T18:30:32.389Z,27.95
2022-08-07T18:33:31.359Z,28.14
2022-08-07T18:36:14.564Z,28.04
2022-08-07T18:40:06.709Z,28.74
2022-08-07T18:42:18.004Z,28.86
2022-08-07T18:45:43.341Z,29.27
2022-08-07T18:48:00.901Z,29.71
2022-08-07T18:50:57.760Z,30.08
2022-08-07T18:53:43.012Z,30.03
2022-08-07T18:56:16.315Z,30.48
2022-08-07T18:59:46.733Z,30.49
2022-08-07T19:02:32.503Z,31.08
2022-08-07T19:05:14.862Z,31.78
2022-08-07T19:07:57.905Z,31.83
2022-08-07T19:10:51.775Z,31.95
2022-08-07T19:13:30.355Z,32.32
2022-08-07T19:17:01.494Z,32.81
2022-08-07T19:19:03.226Z,32.85
2022-08-07T19:21:47.394Z,32.90
2022-08-07T19:24:36.289Z,33.11
2022-08-07T19:28:30.950Z,33.48
2022-08-07T19:31:03.821Z,33.70
2022-08-07T19:32:59.757Z,33.57
2022-08-07T19:35:33.071Z,33.76
2022-08-07T19:38:14.903Z,33.95
2022-08-07T19:40:50.571Z,33.81
2022-08-07T19:43:43.770Z,33.96
2022-08-07T19:46:17.837Z,33.88
2022-08-07T19:48:55.970Z,33.98
2022-08-07T19:51:52.863Z,34.01
2022-08-07T19:54:33.550Z,34.45
2022-08-07T19:58:00.784Z,34.37
2022-08-07T20:00:08.782Z,34.56
2022-08-07T20:02:52.330Z,34.73
2022-08-07T20:06:00.070Z,34.92
2022-08-07T20:08:26.324Z,35.19
2022-08-07T20:11:01.845Z,35.37
2022-08-07T20:13:41.900Z,35.43
2022-08-07T20:16:35.670Z,35.43
2022-08-07T20:19:10.099Z,35.84
2022-08-07T20:21:47.545Z,35.64
2022-08-07T20:24:21.705Z,35.76
2022-08-07T20:26:55.792Z,35.97
2022-08-07T20:29:49.574Z,35.95
2022-08-07T20:32:23.021Z,36.20
2022-08-07T20:34:56.859Z,36.16
2022-08-07T20:37:29.354Z,36.27
2022-08-07T20:40:04.743Z,36.39
2022-08-07T20:42:38.944Z,36.44
2022-08-07T20:45:33.185Z,36.60
2022-08-07T20:48:02.523Z,36.73
2022-08-07T20:50:33.118Z,36.51
2022-08-07T20:53:02.615Z,36.82
2022-08-07T20:55:35.967Z,36.92
2022-08-07T20:58:19.311Z,36.97
2022-08-07T21:00:55.557Z,37.02
2022-08-07T21:03:26.314Z,37.00
2022-08-07T21:06:00.203Z,37.36
2022-08-07T21:08:38.001Z,37.39
2022-08-07T21:11:12.418Z,37.43
2022-08-07T21:14:16.793Z,37.59
2022-08-07T21:16:56.058Z,37.81
2022-08-07T21:19:32.552Z,37.92
2022-08-07T21:22:19.353Z,38.01
2022-08-07T21:25:04.829Z,38.06
2022-08-07T21:28:01.983Z,38.16
2022-08-07T21:30:44.017Z,38.18
2022-08-07T21:33:38.393Z,38.37
2022-08-07T21:36:31.896Z,38.61
2022-08-07T21:39:46.628Z,38.63
2022-08-07T21:42:37.685Z,38.82
2022-08-07T21:45:08.283Z,38.89
2022-08-07T21:47:59.690Z,39.02
2022-08-07T21:50:35.145Z,39.18
2022-08-07T21:53:12.524Z,39.25
2022-08-07T21:55:47.536Z,39.19
2022-08-07T21:58:30.575Z,39.22
2022-08-07T22:01:08.413Z,39.25
2022-08-07T22:03:51.726Z,39.33
2022-08-07T22:06:31.209Z,39.49
2022-08-07T22:09:07.068Z,39.53
2022-08-07T22:11:52.942Z,39.58
2022-08-07T22:14:23.769Z,39.77
2022-08-07T22:17:07.301Z,39.77
2022-08-07T22:19:52.652Z,39.86
2022-08-07T22:22:34.884Z,39.98
2022-08-07T22:25:15.505Z,40.07
2022-08-07T22:28:07.285Z,40.02
2022-08-07T22:30:52.715Z,40.32
2022-08-07T22:33:52.828Z,40.38
2022-08-07T22:36:31.868Z,40.40
2022-08-07T22:39:07.434Z,40.48
2022-08-07T22:42:03.099Z,40.55
2022-08-07T22:44:35.820Z,40.63
2022-08-07T22:47:28.343Z,40.54
2022-08-07T22:50:29.050Z,40.76
2022-08-07T22:54:07.528Z,40.83
2022-08-07T22:56:23.008Z,40.88
2022-08-07T22:59:40.921Z,40.90
2022-08-07T23:02:29.876Z,41.13
2022-08-07T23:06:07.642Z,41.09
2022-08-07T23:08:30.665Z,41.26
2022-08-07T23:11:17.658Z,41.50
2022-08-07T23:14:16.540Z,41.45
2022-08-07T23:17:15.648Z,41.55
2022-08-07T23:20:15.240Z,41.52
2022-08-07T23:22:52.261Z,41.59
2022-08-07T23:25:32.830Z,41.65
2022-08-07T23:28:22.047Z,41.68
2022-08-07T23:31:11.754Z,41.84
2022-08-07T23:34:36.358Z,41.92
2022-08-07T23:37:19.128Z,41.91
2022-08-07T23:40:02.896Z,41.82
2022-08-07T23:42:54.114Z,42.04
2022-08-07T23:46:02.657Z,42.04
2022-08-07T23:48:56.166Z,42.34
2022-08-07T23:52:58.558Z,42.27
2022-08-07T23:54:44.596Z,42.39
2022-08-07T23:57:27.663Z,42.38
